Time;durP1;ratioP1;P1;durP2;ratioP2;P2;SDS_P1;SDS_P2;PMS_P1;PMS_P2;Temp;Humidity;BMP_temperature;BMP_pressure;BME280_temperature;BME280_humidity;BME280_pressure;Samples;Min_cycle;Max_cycle;Signal;HPM_P1;HPM_P2
2023/05/21 04:13:20;;;;;;;7.80;3.75;;;16.50;72.70;;;;;;5251937;24;20063;-66
2023/05/21 04:15:53;;;;;;;7.80;3.47;;;16.40;72.60;;;;;;4825437;29;20480;-66
2023/05/21 04:18:21;;;;;;;13.68;4.03;;;16.50;72.70;;;;;;4827071;29;20118;-66
2023/05/21 04:20:48;;;;;;;13.52;3.85;;;16.50;72.80;;;;;;4826893;29;20125;-67
2023/05/21 04:23:14;;;;;;;10.90;3.65;;;16.50;72.80;;;;;;4827249;29;20131;-66
2023/05/21 04:25:41;;;;;;;9.30;3.60;;;16.40;72.80;;;;;;4825608;29;20061;-67
2023/05/21 04:28:07;;;;;;;8.43;3.65;;;16.50;72.90;;;;;;4810715;29;20137;-67
2023/05/21 04:30:34;;;;;;;9.75;3.92;;;16.50;73.00;;;;;;4826457;29;20167;-68
2023/05/21 04:33:01;;;;;;;6.60;3.60;;;16.50;72.90;;;;;;4826689;29;20065;-67
2023/05/21 04:35:27;;;;;;;9.70;3.70;;;16.50;73.00;;;;;;4825995;29;20133;-67
2023/05/21 04:37:53;;;;;;;9.32;3.33;;;16.50;73.00;;;;;;4826608;29;20211;-68
2023/05/21 04:40:23;;;;;;;9.20;3.40;;;16.50;73.00;;;;;;4826667;29;20133;-68
2023/05/21 04:42:51;;;;;;;21.15;3.80;;;16.50;72.90;;;;;;4826491;29;20082;-67
2023/05/21 04:45:17;;;;;;;10.57;3.13;;;16.50;72.90;;;;;;4825894;29;20057;-67
2023/05/21 04:47:43;;;;;;;9.65;4.18;;;16.50;72.90;;;;;;4826171;29;20054;-67
2023/05/21 04:50:09;;;;;;;10.85;3.75;;;16.50;72.90;;;;;;4826423;29;20062;-67
2023/05/21 04:52:35;;;;;;;10.80;3.72;;;16.50;73.00;;;;;;4826412;29;20484;-68
2023/05/21 04:55:02;;;;;;;11.80;4.15;;;16.60;73.10;;;;;;4825583;29;20133;-68
2023/05/21 04:57:28;;;;;;;15.52;4.38;;;16.60;73.20;;;;;;4826110;29;20086;-67
2023/05/21 04:59:55;;;;;;;14.98;4.60;;;16.60;73.20;;;;;;4825956;29;20046;-68
2023/05/21 05:02:21;;;;;;;19.40;4.07;;;16.60;73.20;;;;;;4825885;29;20046;-67
2023/05/21 05:04:47;;;;;;;25.52;4.85;;;16.60;73.20;;;;;;4825941;29;20119;-70
2023/05/21 05:07:13;;;;;;;19.55;4.53;;;16.60;73.30;;;;;;4809618;29;20065;-66
2023/05/21 05:09:39;;;;;;;19.48;4.03;;;16.60;73.30;;;;;;4825761;29;20475;-67
2023/05/21 05:12:05;;;;;;;14.93;4.15;;;16.60;73.10;;;;;;4826085;29;20062;-68
2023/05/21 05:14:31;;;;;;;9.75;4.00;;;16.70;73.10;;;;;;4826139;29;20391;-67
2023/05/21 05:16:59;;;;;;;10.23;3.60;;;16.70;73.00;;;;;;4825907;29;20133;-68
2023/05/21 05:19:25;;;;;;;13.25;3.42;;;16.60;73.00;;;;;;4825814;29;20053;-67
2023/05/21 05:21:51;;;;;;;8.75;2.90;;;16.60;73.00;;;;;;4825286;29;20451;-67
2023/05/21 05:24:17;;;;;;;11.57;3.10;;;16.60;73.00;;;;;;4826131;29;20043;-67
2023/05/21 05:26:43;;;;;;;12.35;3.90;;;16.60;73.10;;;;;;4825841;29;20086;-66
2023/05/21 05:29:09;;;;;;;8.60;3.25;;;16.70;73.80;;;;;;4825861;29;20489;-66
2023/05/21 05:31:34;;;;;;;13.43;3.72;;;16.70;73.60;;;;;;4809883;29;20054;-66
2023/05/21 05:34:00;;;;;;;9.70;3.72;;;16.80;73.50;;;;;;4825506;29;20050;-66
2023/05/21 05:36:26;;;;;;;11.10;3.92;;;16.80;73.40;;;;;;4825473;29;20090;-66
2023/05/21 05:38:52;;;;;;;12.40;3.58;;;16.80;73.30;;;;;;4824959;29;20050;-66
2023/05/21 05:41:17;;;;;;;11.65;4.05;;;16.80;73.20;;;;;;4825986;29;20137;-67
2023/05/21 05:43:43;;;;;;;9.20;3.42;;;16.80;73.30;;;;;;4825924;29;20141;-66
2023/05/21 05:46:09;;;;;;;10.25;3.22;;;16.80;73.40;;;;;;4825095;29;20494;-66
2023/05/21 05:48:35;;;;;;;11.27;3.58;;;16.90;73.30;;;;;;4828440;29;20050;-66
2023/05/21 05:51:00;;;;;;;12.68;3.83;;;16.90;73.30;;;;;;4828484;29;20066;-66
2023/05/21 05:53:26;;;;;;;15.90;3.90;;;16.90;73.30;;;;;;4829196;29;20084;-66
2023/05/21 05:55:52;;;;;;;8.95;3.17;;;16.90;73.80;;;;;;4828897;29;20060;-66
2023/05/21 05:58:17;;;;;;;13.20;3.75;;;16.90;73.20;;;;;;4829310;29;20046;-66
2023/05/21 06:00:43;;;;;;;8.73;3.35;;;16.90;73.20;;;;;;4829446;29;20046;-67
2023/05/21 06:03:10;;;;;;;10.90;3.60;;;16.90;73.20;;;;;;4828184;29;20097;-66
2023/05/21 06:05:36;;;;;;;11.88;3.53;;;16.90;73.20;;;;;;4828066;29;20492;-66
2023/05/21 06:08:02;;;;;;;16.02;3.85;;;16.90;73.10;;;;;;4828617;29;20090;-67
2023/05/21 06:10:27;;;;;;;19.77;4.28;;;16.90;73.20;;;;;;4828178;29;20056;-67
2023/05/21 06:12:53;;;;;;;24.25;5.38;;;16.90;73.20;;;;;;4828599;29;20050;-67
2023/05/21 06:15:19;;;;;;;18.58;4.78;;;17.00;73.40;;;;;;4828042;29;20066;-68
2023/05/21 06:17:45;;;;;;;26.58;5.75;;;17.00;73.60;;;;;;4828347;29;20066;-67
2023/05/21 06:20:11;;;;;;;29.80;5.70;;;17.00;74.20;;;;;;4827083;29;20057;-67
2023/05/21 06:22:37;;;;;;;27.15;5.05;;;17.00;74.40;;;;;;4828032;29;20046;-67
2023/05/21 06:25:03;;;;;;;31.92;5.50;;;17.10;74.70;;;;;;4828494;29;20046;-67
2023/05/21 06:27:29;;;;;;;33.65;6.25;;;17.10;74.70;;;;;;4828190;29;20490;-67
2023/05/21 06:29:56;;;;;;;27.48;4.82;;;17.10;74.70;;;;;;4818523;29;20055;-68
2023/05/21 06:32:23;;;;;;;36.55;5.00;;;17.10;74.70;;;;;;4827991;29;20097;-66
2023/05/21 06:34:48;;;;;;;34.85;4.88;;;17.10;75.00;;;;;;4828170;29;20066;-66
2023/05/21 06:37:19;;;;;;;23.23;3.97;;;17.10;74.90;;;;;;4827860;29;20065;-65
2023/05/21 06:39:45;;;;;;;19.55;3.85;;;17.10;75.00;;;;;;4828102;29;20070;-65
2023/05/21 06:42:10;;;;;;;19.13;3.42;;;17.10;75.10;;;;;;4827849;29;20423;-65
2023/05/21 06:44:36;;;;;;;17.73;4.05;;;17.10;75.10;;;;;;4827530;29;20057;-66
2023/05/21 06:47:02;;;;;;;19.98;3.40;;;17.10;75.10;;;;;;4827831;29;20085;-65
2023/05/21 06:49:27;;;;;;;16.30;3.75;;;17.10;75.00;;;;;;4827765;29;20100;-65
2023/05/21 06:51:53;;;;;;;14.60;3.63;;;17.10;75.00;;;;;;4827690;29;20085;-66
2023/05/21 06:54:19;;;;;;;16.15;3.80;;;17.10;75.00;;;;;;4827961;29;20046;-66
2023/05/21 06:56:45;;;;;;;17.92;3.47;;;17.10;74.90;;;;;;4827362;29;20047;-66
2023/05/21 06:59:11;;;;;;;14.77;3.53;;;17.10;74.90;;;;;;4827437;29;20056;-65
2023/05/21 07:01:36;;;;;;;13.18;3.08;;;17.10;74.90;;;;;;4827662;29;20116;-66
2023/05/21 07:04:02;;;;;;;16.98;3.17;;;17.10;74.80;;;;;;4827531;29;20450;-66
2023/05/21 07:06:28;;;;;;;7.50;2.78;;;17.10;74.70;;;;;;4827885;29;20125;-67
2023/05/21 07:08:53;;;;;;;13.15;2.83;;;17.10;74.70;;;;;;4827581;29;20046;-65
2023/05/21 07:11:20;;;;;;;28.15;4.72;;;17.10;74.60;;;;;;4827321;29;20221;-66
2023/05/21 07:13:45;;;;;;;17.88;3.47;;;17.10;74.60;;;;;;4827096;29;20201;-66
2023/05/21 07:16:11;;;;;;;14.70;4.18;;;17.10;74.60;;;;;;4826989;29;20465;-66
2023/05/21 07:18:37;;;;;;;10.18;2.42;;;17.10;74.60;;;;;;4827350;29;20078;-66
2023/05/21 07:21:03;;;;;;;14.00;3.47;;;17.10;74.50;;;;;;4827324;29;20062;-65
2023/05/21 07:23:28;;;;;;;9.07;2.72;;;17.10;74.50;;;;;;4827266;29;20042;-66
2023/05/21 07:25:54;;;;;;;12.75;2.72;;;17.10;74.50;;;;;;4827019;29;20473;-65
2023/05/21 07:28:20;;;;;;;14.63;3.13;;;17.20;74.60;;;;;;4827187;29;20051;-65
2023/05/21 07:30:46;;;;;;;9.30;2.80;;;17.20;74.60;;;;;;4811266;29;20370;-66
2023/05/21 07:33:12;;;;;;;10.35;2.72;;;17.20;74.60;;;;;;4827453;29;20055;-66
2023/05/21 07:35:38;;;;;;;11.82;2.67;;;17.20;74.50;;;;;;4827531;29;20057;-65
2023/05/21 07:38:03;;;;;;;9.90;2.65;;;17.20;74.50;;;;;;4827030;29;20050;-65
2023/05/21 07:40:29;;;;;;;8.52;2.72;;;17.20;74.50;;;;;;4826950;29;20113;-66
2023/05/21 07:42:55;;;;;;;9.75;2.50;;;17.20;74.40;;;;;;4827062;29;20060;-66
2023/05/21 07:45:20;;;;;;;9.05;2.40;;;17.20;74.40;;;;;;4811778;29;20054;-65
2023/05/21 07:47:46;;;;;;;8.05;2.08;;;17.20;74.40;;;;;;4826555;29;20053;-65
2023/05/21 07:50:13;;;;;;;4.38;2.25;;;17.20;74.30;;;;;;4826872;29;20060;-65
2023/05/21 07:52:39;;;;;;;9.70;2.85;;;17.20;74.30;;;;;;4826785;29;20147;-66
2023/05/21 07:55:06;;;;;;;8.00;2.45;;;17.20;74.30;;;;;;4810566;29;20131;-66
2023/05/21 07:57:31;;;;;;;4.88;1.73;;;17.30;74.30;;;;;;4827145;29;20057;-65
2023/05/21 07:59:57;;;;;;;7.85;2.15;;;17.30;74.20;;;;;;4826899;29;20381;-65
2023/05/21 08:02:23;;;;;;;7.05;2.17;;;17.30;74.20;;;;;;4826507;29;20065;-64
2023/05/21 08:04:49;;;;;;;9.65;2.58;;;17.30;74.20;;;;;;4826728;29;20062;-66
2023/05/21 08:07:18;;;;;;;6.78;2.38;;;17.30;74.10;;;;;;4810709;29;20046;-65
2023/05/21 08:09:44;;;;;;;8.80;2.67;;;17.30;74.10;;;;;;4826179;29;20050;-66
2023/05/21 08:12:14;;;;;;;6.43;1.83;;;17.30;74.10;;;;;;4826565;29;20355;-65
2023/05/21 08:14:40;;;;;;;7.93;2.50;;;17.30;74.00;;;;;;4825907;29;20074;-65
2023/05/21 08:17:09;;;;;;;6.60;2.05;;;17.30;73.90;;;;;;4823325;29;20133;-65
2023/05/21 08:19:35;;;;;;;8.02;1.83;;;17.30;73.90;;;;;;4815987;29;20063;-66
2023/05/21 08:22:02;;;;;;;6.65;2.25;;;17.40;74.00;;;;;;4808478;29;20051;-66
2023/05/21 08:24:31;;;;;;;6.50;2.00;;;17.40;73.90;;;;;;4808329;29;20171;-66
2023/05/21 08:26:57;;;;;;;6.25;2.20;;;17.40;73.90;;;;;;4808221;29;20082;-66
2023/05/21 08:29:22;;;;;;;5.32;2.53;;;17.40;73.80;;;;;;4807975;29;20043;-65
2023/05/21 08:31:48;;;;;;;6.32;2.55;;;17.40;73.80;;;;;;4807988;29;20055;-66
2023/05/21 08:34:15;;;;;;;11.23;2.55;;;17.30;73.70;;;;;;4808430;29;20086;-66
2023/05/21 08:36:42;;;;;;;6.05;2.45;;;17.30;73.70;;;;;;4811436;29;20849;-65
2023/05/21 08:39:07;;;;;;;9.07;2.22;;;17.40;73.70;;;;;;4825642;29;20473;-64
2023/05/21 08:41:35;;;;;;;6.13;2.03;;;17.30;73.60;;;;;;4829600;29;20083;-70
2023/05/21 08:44:02;;;;;;;7.47;1.73;;;17.40;73.60;;;;;;4806774;29;20082;-75
2023/05/21 08:46:35;;;;;;;11.77;2.70;;;17.40;73.70;;;;;;4807941;29;20374;-66
2023/05/21 08:49:02;;;;;;;15.07;3.08;;;17.40;73.70;;;;;;4812618;29;20367;-67
2023/05/21 08:51:29;;;;;;;12.45;2.65;;;17.40;73.70;;;;;;4822256;29;20093;-65
2023/05/21 08:53:56;;;;;;;14.82;3.03;;;17.40;73.70;;;;;;4826065;29;20086;-68
2023/05/21 08:56:23;;;;;;;12.15;2.88;;;17.40;73.70;;;;;;4826407;29;20382;-67
2023/05/21 08:58:50;;;;;;;9.77;2.55;;;17.40;73.60;;;;;;4826369;29;20069;-67
2023/05/21 09:01:18;;;;;;;9.00;2.63;;;17.40;73.70;;;;;;4826070;29;20129;-67
2023/05/21 09:03:45;;;;;;;9.25;2.85;;;17.40;73.70;;;;;;4809955;29;20050;-67
2023/05/21 09:06:12;;;;;;;11.18;3.33;;;17.50;73.70;;;;;;4825708;29;20449;-67
2023/05/21 09:08:44;;;;;;;16.85;3.38;;;17.50;73.60;;;;;;4811881;29;20065;-66
2023/05/21 09:11:10;;;;;;;15.40;2.42;;;17.50;73.70;;;;;;4818120;29;20050;-67
2023/05/21 09:13:37;;;;;;;14.93;2.95;;;17.50;73.70;;;;;;4816341;29;20142;-67
2023/05/21 09:16:04;;;;;;;20.13;3.08;;;17.40;73.70;;;;;;4821941;29;20058;-67
2023/05/21 09:18:30;;;;;;;20.33;3.15;;;17.50;73.80;;;;;;4825675;29;20050;-68
2023/05/21 09:20:56;;;;;;;16.50;4.07;;;17.50;73.80;;;;;;4823163;29;20352;-68
2023/05/21 09:23:21;;;;;;;20.35;3.63;;;17.50;73.70;;;;;;4810595;29;20059;-67
2023/05/21 09:25:47;;;;;;;17.98;3.95;;;17.50;73.60;;;;;;4811552;29;20043;-67
2023/05/21 09:28:14;;;;;;;15.13;3.38;;;17.50;73.60;;;;;;4824596;29;20358;-67
2023/05/21 09:30:48;;;;;;;21.48;4.30;;;17.50;73.60;;;;;;4813340;29;20127;-68
2023/05/21 09:33:30;;;;;;;19.50;4.00;;;17.50;73.50;;;;;;4821236;29;20062;-65
2023/05/21 09:35:56;;;;;;;16.25;3.20;;;17.50;73.40;;;;;;4815930;29;20051;-68
2023/05/21 09:38:23;;;;;;;15.80;3.80;;;17.50;73.50;;;;;;4811486;29;20432;-68
2023/05/21 09:40:49;;;;;;;18.77;3.45;;;17.50;73.10;;;;;;4828693;29;20138;-68
2023/05/21 09:43:15;;;;;;;15.88;3.60;;;17.50;73.30;;;;;;4820575;29;20070;-68
2023/05/21 09:45:51;;;;;;;17.20;3.22;;;17.50;73.40;;;;;;4822085;29;20130;-68
2023/05/21 09:48:36;;;;;;;14.43;3.35;;;17.50;73.40;;;;;;4806403;29;20042;-68
2023/05/21 09:51:09;;;;;;;20.70;3.83;;;17.60;73.50;;;;;;4819920;29;20050;-68
2023/05/21 09:53:35;;;;;;;15.38;4.03;;;17.60;73.60;;;;;;4820110;29;20046;-68
2023/05/21 09:56:02;;;;;;;14.60;3.00;;;17.60;73.60;;;;;;4819599;29;20050;-68
2023/05/21 09:58:28;;;;;;;15.95;3.47;;;17.60;73.60;;;;;;4800029;29;20487;-67
2023/05/21 10:00:54;;;;;;;15.20;2.92;;;17.50;73.60;;;;;;4827943;29;20046;-68
2023/05/21 10:03:25;;;;;;;12.82;3.47;;;17.60;73.60;;;;;;4812831;29;20374;-68
2023/05/21 10:05:54;;;;;;;13.95;3.88;;;17.60;73.60;;;;;;4828423;29;20081;-67
2023/05/21 10:08:24;;;;;;;14.27;2.92;;;17.60;73.60;;;;;;4828633;29;20145;-67
2023/05/21 10:10:50;;;;;;;10.02;2.92;;;17.70;73.50;;;;;;4828613;29;20448;-68
2023/05/21 10:13:19;;;;;;;15.20;2.92;;;17.70;73.60;;;;;;4828760;29;20066;-67
2023/05/21 10:15:49;;;;;;;14.45;2.83;;;17.70;73.60;;;;;;4828172;29;20073;-66
2023/05/21 10:18:17;;;;;;;12.65;3.53;;;17.70;73.70;;;;;;4828467;29;20056;-67
2023/05/21 10:20:43;;;;;;;13.88;2.83;;;17.70;73.60;;;;;;4828429;29;20046;-67
2023/05/21 10:23:09;;;;;;;12.00;3.10;;;17.70;73.30;;;;;;4824569;29;20425;-64
2023/05/21 10:25:35;;;;;;;7.10;2.50;;;17.70;72.80;;;;;;4828297;29;20089;-64
2023/05/21 10:28:02;;;;;;;18.30;3.38;;;17.70;72.40;;;;;;4817745;29;20065;-66
2023/05/21 10:30:28;;;;;;;18.40;4.30;;;17.70;72.40;;;;;;4809862;29;20125;-67
2023/05/21 10:32:55;;;;;;;12.52;2.47;;;17.80;72.50;;;;;;4809710;29;20127;-66
2023/05/21 10:35:22;;;;;;;13.10;2.85;;;17.70;72.30;;;;;;4810152;29;20125;-66
2023/05/21 10:37:49;;;;;;;14.93;3.38;;;17.70;72.40;;;;;;4794359;29;20062;-66
2023/05/21 10:40:15;;;;;;;12.65;2.78;;;17.80;72.50;;;;;;4817163;29;20065;-66
2023/05/21 10:43:02;;;;;;;9.60;2.90;;;17.70;72.50;;;;;;4827855;29;20066;-66
2023/05/21 10:45:49;;;;;;;10.73;2.30;;;17.70;72.60;;;;;;4828204;29;20358;-66
2023/05/21 10:48:23;;;;;;;9.60;2.50;;;17.80;72.60;;;;;;4827959;29;20137;-66
2023/05/21 10:51:05;;;;;;;;;;;17.80;72.60;;;;;;4828326;29;20061;-66
2023/05/21 10:53:37;;;;;;;11.27;2.50;;;17.70;72.70;;;;;;4826117;29;19925;-66
2023/05/21 10:56:21;;;;;;;12.65;2.97;;;17.70;72.60;;;;;;4810078;29;20072;-67
2023/05/21 10:58:49;;;;;;;20.10;2.80;;;17.80;72.70;;;;;;4828130;29;20051;-68
2023/05/21 11:01:18;;;;;;;14.43;3.30;;;17.80;72.60;;;;;;4826466;29;20050;-66
2023/05/21 11:03:45;;;;;;;10.15;2.58;;;17.80;72.40;;;;;;4820406;29;20379;-67
2023/05/21 11:06:23;;;;;;;9.20;2.30;;;17.80;72.30;;;;;;4809588;29;20320;-66
2023/05/21 11:08:52;;;;;;;14.70;3.20;;;17.80;72.10;;;;;;4809364;29;20058;-68
2023/05/21 11:11:41;;;;;;;13.90;3.08;;;17.80;72.30;;;;;;4823944;29;20093;-68
2023/05/21 11:14:42;;;;;;;16.73;3.17;;;17.80;72.80;;;;;;4827247;29;20062;-68
2023/05/21 11:17:14;;;;;;;12.68;3.22;;;17.90;73.10;;;;;;4827373;29;20043;-67
2023/05/21 11:19:46;;;;;;;14.38;3.15;;;17.90;73.10;;;;;;4827591;29;20062;-67
2023/05/21 11:22:24;;;;;;;16.92;3.15;;;17.90;73.10;;;;;;4827626;29;20046;-67
2023/05/21 11:24:51;;;;;;;16.85;3.22;;;17.90;73.10;;;;;;4827793;29;20061;-67
2023/05/21 11:27:31;;;;;;;13.15;2.85;;;17.90;73.10;;;;;;4827538;29;20378;-67
2023/05/21 11:29:57;;;;;;;18.10;3.30;;;18.00;73.00;;;;;;4827471;29;20066;-66
2023/05/21 11:32:23;;;;;;;32.08;4.55;;;18.00;73.10;;;;;;4828008;29;20138;-67
2023/05/21 11:34:49;;;;;;;12.00;2.45;;;18.00;73.20;;;;;;4827177;29;20133;-66
2023/05/21 11:37:23;;;;;;;20.05;3.40;;;18.00;72.90;;;;;;4827134;29;20058;-66
2023/05/21 11:39:50;;;;;;;14.75;3.22;;;18.00;73.00;;;;;;4826859;29;20062;-66
2023/05/21 11:42:33;;;;;;;16.80;3.55;;;18.00;73.00;;;;;;4826963;29;20477;-66
2023/05/21 11:45:00;;;;;;;23.30;4.05;;;18.00;73.00;;;;;;4826544;29;20047;-65
2023/05/21 11:47:27;;;;;;;12.70;3.05;;;18.00;73.00;;;;;;4827393;29;20054;-65
2023/05/21 11:49:55;;;;;;;22.17;3.72;;;18.00;72.90;;;;;;4826966;29;20069;-66
2023/05/21 11:52:22;;;;;;;18.30;3.53;;;18.10;72.80;;;;;;4809699;29;20077;-67
2023/05/21 11:54:53;;;;;;;30.55;5.75;;;18.00;72.60;;;;;;4808818;29;20482;-66
2023/05/21 11:57:20;;;;;;;21.90;3.95;;;18.00;72.80;;;;;;4793632;29;20067;-66
2023/05/21 11:59:47;;;;;;;12.75;2.85;;;18.00;72.60;;;;;;4816532;29;20128;-66
2023/05/21 12:02:18;;;;;;;10.98;2.22;;;18.00;72.40;;;;;;4809409;29;20421;-68
2023/05/21 12:04:47;;;;;;;9.65;1.88;;;18.00;72.30;;;;;;4809197;29;20057;-67
2023/05/21 12:07:13;;;;;;;12.80;2.53;;;18.00;72.10;;;;;;4810025;29;20351;-66
2023/05/21 12:09:41;;;;;;;9.27;2.17;;;18.00;72.10;;;;;;4821719;29;20122;-66
2023/05/21 12:12:12;;;;;;;9.07;2.45;;;18.00;71.90;;;;;;4826981;29;20043;-68
2023/05/21 12:14:39;;;;;;;15.98;3.40;;;18.00;71.80;;;;;;4825871;29;20478;-67
2023/05/21 12:17:06;;;;;;;15.02;3.13;;;18.00;71.80;;;;;;4827268;29;20137;-67
2023/05/21 12:19:36;;;;;;;13.00;2.80;;;18.10;71.90;;;;;;4826627;29;20065;-67
2023/05/21 12:22:06;;;;;;;12.95;2.60;;;18.00;72.10;;;;;;4826768;29;20580;-67
2023/05/21 12:24:35;;;;;;;9.70;2.50;;;18.00;72.20;;;;;;4827114;29;20054;-68
2023/05/21 12:27:08;;;;;;;9.07;2.00;;;18.00;72.30;;;;;;4826932;29;20054;-67
2023/05/21 12:29:36;;;;;;;10.55;2.55;;;18.00;72.40;;;;;;4826483;29;20068;-68
2023/05/21 12:32:08;;;;;;;17.80;2.70;;;18.00;72.40;;;;;;4826103;29;20374;-67
2023/05/21 12:34:43;;;;;;;10.43;2.53;;;18.00;72.50;;;;;;4826144;29;20473;-67
2023/05/21 12:37:15;;;;;;;10.80;2.20;;;18.00;72.50;;;;;;4826696;29;20141;-67
2023/05/21 12:39:46;;;;;;;7.88;2.35;;;18.00;72.50;;;;;;4826362;29;20055;-67
2023/05/21 12:42:13;;;;;;;12.35;2.72;;;18.00;72.60;;;;;;4826085;29;20046;-67
2023/05/21 12:44:42;;;;;;;11.13;2.72;;;18.00;72.70;;;;;;4826381;29;20043;-67
2023/05/21 12:47:10;;;;;;;11.85;2.10;;;18.00;72.70;;;;;;4810183;29;20058;-66
2023/05/21 12:49:40;;;;;;;9.23;2.53;;;18.00;72.70;;;;;;4826274;29;20054;-67
2023/05/21 12:52:10;;;;;;;10.60;2.88;;;18.00;72.70;;;;;;4826859;29;20163;-67
2023/05/21 12:54:39;;;;;;;8.88;2.67;;;18.00;72.60;;;;;;4826062;29;20046;-66
2023/05/21 12:57:09;;;;;;;9.63;2.50;;;18.00;72.40;;;;;;4826244;29;20062;-66
2023/05/21 12:59:51;;;;;;;4.68;2.10;;;18.00;72.20;;;;;;4826346;29;20042;-66
2023/05/21 13:02:21;;;;;;;12.85;1.85;;;18.00;72.20;;;;;;4826836;29;20421;-67
2023/05/21 13:04:47;;;;;;;6.47;2.50;;;18.00;72.20;;;;;;4826000;29;20046;-67
2023/05/21 13:07:17;;;;;;;7.78;2.35;;;18.00;72.10;;;;;;4825896;29;20115;-67
2023/05/21 13:09:43;;;;;;;5.55;2.20;;;18.00;72.80;;;;;;4826361;29;20123;-67
2023/05/21 13:12:08;;;;;;;4.22;1.83;;;18.00;72.30;;;;;;4826011;29;20054;-67
2023/05/21 13:14:34;;;;;;;10.48;2.70;;;18.00;72.30;;;;;;4809422;29;20054;-67
2023/05/21 13:17:00;;;;;;;5.93;1.83;;;18.00;72.40;;;;;;4825695;29;20062;-66
2023/05/21 13:19:26;;;;;;;7.82;2.47;;;18.00;72.30;;;;;;4825824;29;20096;-65
2023/05/21 13:21:51;;;;;;;5.97;1.88;;;18.00;72.30;;;;;;4825891;29;20054;-66
2023/05/21 13:24:17;;;;;;;6.85;1.95;;;18.00;72.20;;;;;;4826322;29;20054;-66
2023/05/21 13:26:44;;;;;;;6.50;2.33;;;18.00;72.80;;;;;;4826216;29;20059;-65
2023/05/21 13:29:13;;;;;;;7.80;2.50;;;18.00;72.20;;;;;;4824079;29;20481;-67
2023/05/21 13:31:42;;;;;;;9.18;4.10;;;18.00;72.10;;;;;;4825587;29;20093;-66
2023/05/21 13:34:09;;;;;;;8.70;4.10;;;18.10;71.70;;;;;;4825774;29;20362;-66
2023/05/21 13:36:35;;;;;;;5.25;3.15;;;18.10;71.30;;;;;;4825728;29;20524;-66
2023/05/21 13:39:01;;;;;;;6.45;2.92;;;18.20;71.50;;;;;;4825722;29;20094;-67
2023/05/21 13:41:27;;;;;;;7.40;3.20;;;18.20;71.60;;;;;;4825980;29;20129;-68
2023/05/21 13:43:53;;;;;;;6.55;2.95;;;18.20;71.50;;;;;;4808851;29;20046;-68
2023/05/21 13:46:18;;;;;;;7.05;3.53;;;18.20;71.50;;;;;;4825269;29;20042;-66
2023/05/21 13:48:44;;;;;;;9.02;4.05;;;18.20;71.60;;;;;;4824443;29;20038;-66
2023/05/21 13:51:10;;;;;;;8.32;3.53;;;18.20;71.50;;;;;;4809432;29;20420;-66
2023/05/21 13:53:36;;;;;;;10.35;4.68;;;18.20;71.40;;;;;;4825742;29;20130;-67
2023/05/21 13:56:02;;;;;;;11.20;4.90;;;18.20;71.20;;;;;;4825465;29;20058;-67
2023/05/21 13:58:33;;;;;;;7.85;4.07;;;18.20;71.10;;;;;;4825487;29;20058;-67
2023/05/21 14:01:01;;;;;;;7.35;4.30;;;18.30;71.10;;;;;;4809372;29;20061;-68
2023/05/21 14:03:27;;;;;;;7.63;4.43;;;18.30;71.00;;;;;;4825789;29;20042;-68
2023/05/21 14:05:54;;;;;;;8.02;4.43;;;18.30;70.90;;;;;;4825521;29;20050;-68
2023/05/21 14:08:22;;;;;;;7.45;4.35;;;18.30;70.90;;;;;;4826521;29;20046;-68
2023/05/21 14:10:48;;;;;;;9.38;5.00;;;18.30;70.90;;;;;;4828531;29;20124;-67
2023/05/21 14:13:14;;;;;;;13.23;5.60;;;18.30;70.90;;;;;;4828897;29;20057;-67
2023/05/21 14:15:41;;;;;;;9.68;5.20;;;18.30;70.90;;;;;;4828121;29;20070;-68
2023/05/21 14:18:10;;;;;;;9.32;5.03;;;18.30;70.90;;;;;;4828446;29;20038;-67
2023/05/21 14:20:37;;;;;;;7.68;5.55;;;18.30;71.00;;;;;;4828580;29;20126;-67
2023/05/21 14:23:03;;;;;;;9.48;5.55;;;18.30;71.00;;;;;;4828337;29;20051;-67
2023/05/21 14:25:29;;;;;;;9.90;5.93;;;18.30;71.10;;;;;;4828770;29;20046;-67
2023/05/21 14:27:54;;;;;;;10.00;6.53;;;18.30;71.10;;;;;;4828520;29;20042;-67
2023/05/21 14:30:20;;;;;;;6.78;6.07;;;18.40;71.30;;;;;;4828237;29;20057;-67
2023/05/21 14:32:46;;;;;;;11.10;6.65;;;18.40;71.30;;;;;;4828201;29;20065;-67
2023/05/21 14:35:12;;;;;;;8.85;5.35;;;18.40;71.30;;;;;;4812889;29;20058;-67
2023/05/21 14:37:37;;;;;;;9.05;6.53;;;18.40;71.40;;;;;;4828725;29;20443;-67
2023/05/21 14:40:06;;;;;;;8.75;6.28;;;18.40;71.40;;;;;;4828345;29;20055;-67
2023/05/21 14:42:33;;;;;;;9.98;7.20;;;18.40;71.40;;;;;;4828364;29;20157;-67
2023/05/21 14:44:59;;;;;;;8.48;5.88;;;18.40;71.40;;;;;;4827182;29;20459;-67
2023/05/21 14:47:25;;;;;;;9.02;6.60;;;18.50;71.40;;;;;;4828129;29;20107;-68
2023/05/21 14:49:51;;;;;;;7.88;6.55;;;18.40;71.50;;;;;;4828222;29;20530;-68
2023/05/21 14:52:16;;;;;;;11.40;6.57;;;18.40;71.50;;;;;;4812235;29;20057;-68
2023/05/21 14:54:42;;;;;;;11.30;6.97;;;18.50;71.70;;;;;;4827877;29;20042;-71
2023/05/21 14:57:08;;;;;;;12.15;7.32;;;18.50;71.80;;;;;;4828144;29;20150;-68
2023/05/21 14:59:33;;;;;;;8.18;5.80;;;18.50;71.80;;;;;;4827787;29;20171;-69
2023/05/21 15:01:59;;;;;;;9.63;6.22;;;18.50;71.80;;;;;;4824995;29;20058;-67
2023/05/21 15:04:25;;;;;;;10.70;6.60;;;18.50;71.90;;;;;;4811783;29;20062;-68
2023/05/21 15:06:51;;;;;;;8.25;5.90;;;18.60;72.00;;;;;;4827792;29;20050;-69
2023/05/21 15:09:17;;;;;;;12.25;6.93;;;18.50;71.90;;;;;;4829206;29;20150;-68
2023/05/21 15:11:44;;;;;;;16.77;7.68;;;18.60;72.30;;;;;;4845963;29;20130;-68
2023/05/21 15:14:11;;;;;;;14.77;7.43;;;18.60;72.50;;;;;;4844161;29;20508;-68
2023/05/21 15:16:36;;;;;;;11.75;8.10;;;18.70;72.40;;;;;;4827276;29;20446;-68
2023/05/21 15:19:03;;;;;;;19.27;8.02;;;18.80;71.70;;;;;;4827772;29;20092;-69
2023/05/21 15:21:28;;;;;;;22.75;8.35;;;18.90;71.80;;;;;;4827576;29;20076;-70
2023/05/21 15:23:54;;;;;;;19.58;8.10;;;18.90;72.30;;;;;;4827704;29;20047;-69
2023/05/21 15:26:20;;;;;;;18.80;8.32;;;18.80;72.60;;;;;;4822054;29;20077;-68
2023/05/21 15:28:46;;;;;;;30.83;8.65;;;18.80;72.90;;;;;;4827237;29;20083;-68
2023/05/21 15:31:11;;;;;;;33.63;8.25;;;18.80;73.10;;;;;;4811218;29;20466;-68
2023/05/21 15:33:37;;;;;;;21.30;8.25;;;18.80;73.40;;;;;;4827549;29;20124;-69
2023/05/21 15:36:03;;;;;;;36.55;9.18;;;18.70;73.60;;;;;;4827380;29;20054;-69
2023/05/21 15:38:29;;;;;;;28.63;9.38;;;18.70;73.90;;;;;;4827819;29;20489;-69
2023/05/21 15:40:55;;;;;;;23.55;7.47;;;18.70;74.20;;;;;;4823561;29;20042;-68
2023/05/21 15:43:21;;;;;;;30.42;7.65;;;18.70;74.70;;;;;;4826036;29;20382;-68
2023/05/21 15:45:47;;;;;;;33.15;8.88;;;18.70;74.30;;;;;;4810761;29;20137;-68
2023/05/21 15:48:13;;;;;;;31.10;8.70;;;18.70;74.40;;;;;;4827439;29;20131;-68
2023/05/21 15:50:39;;;;;;;26.05;8.25;;;18.70;74.50;;;;;;4811131;29;20058;-68
2023/05/21 15:53:05;;;;;;;24.85;9.35;;;18.80;74.60;;;;;;4825565;29;20065;-68
2023/05/21 15:55:32;;;;;;;26.88;8.68;;;18.80;74.50;;;;;;4826960;29;20050;-68
2023/05/21 15:57:58;;;;;;;20.83;8.55;;;18.80;74.50;;;;;;4826793;29;20050;-67
2023/05/21 16:00:24;;;;;;;20.00;8.82;;;18.80;74.40;;;;;;4810733;29;20047;-68
2023/05/21 16:02:50;;;;;;;14.70;8.02;;;18.90;74.30;;;;;;4811074;29;20068;-68
2023/05/21 16:05:15;;;;;;;21.50;8.45;;;18.80;74.30;;;;;;4827209;29;20047;-68
2023/05/21 16:07:41;;;;;;;13.13;7.60;;;18.90;74.20;;;;;;4827008;29;20062;-68
2023/05/21 16:10:09;;;;;;;13.70;8.27;;;18.90;74.10;;;;;;4826497;29;20527;-68
2023/05/21 16:12:35;;;;;;;13.65;7.80;;;18.90;74.10;;;;;;4809983;29;20417;-68
2023/05/21 16:15:00;;;;;;;15.57;8.27;;;18.90;74.10;;;;;;4810325;29;20059;-67
2023/05/21 16:17:26;;;;;;;18.88;9.13;;;18.90;74.20;;;;;;4826690;29;20394;-68
2023/05/21 16:19:52;;;;;;;15.05;8.70;;;18.90;74.20;;;;;;4810623;29;20462;-69
2023/05/21 16:22:19;;;;;;;15.82;8.90;;;19.00;74.20;;;;;;4810499;29;20054;-69
2023/05/21 16:24:46;;;;;;;14.40;8.25;;;19.00;74.20;;;;;;4826882;29;20090;-68
2023/05/21 16:27:12;;;;;;;14.27;8.30;;;19.00;74.20;;;;;;4824841;29;20107;-68
2023/05/21 16:29:38;;;;;;;16.63;8.30;;;19.00;74.20;;;;;;4818059;29;20062;-68
2023/05/21 16:32:04;;;;;;;13.90;7.93;;;19.00;74.20;;;;;;4813150;29;20126;-68
2023/05/21 16:34:30;;;;;;;15.55;7.75;;;19.00;74.20;;;;;;4815671;29;20086;-68
2023/05/21 16:36:55;;;;;;;12.73;6.88;;;19.00;74.10;;;;;;4825897;29;20093;-67
2023/05/21 16:39:21;;;;;;;17.10;8.23;;;18.90;74.00;;;;;;4826576;29;20064;-68
2023/05/21 16:41:47;;;;;;;19.25;7.80;;;19.00;74.10;;;;;;4825911;29;20446;-68
2023/05/21 16:44:13;;;;;;;19.20;7.60;;;19.00;74.30;;;;;;4826223;29;20343;-68
2023/05/21 16:46:39;;;;;;;17.60;7.78;;;19.00;74.30;;;;;;4826606;29;20129;-68
2023/05/21 16:49:05;;;;;;;19.65;7.55;;;19.00;74.30;;;;;;4810425;29;20526;-68
2023/05/21 16:51:30;;;;;;;16.38;7.15;;;19.10;74.30;;;;;;4826296;29;20054;-68
2023/05/21 16:53:56;;;;;;;17.17;5.68;;;19.10;74.30;;;;;;4795050;29;20087;-71